Omaha/Offutt AFB, Nebraska
Current Conditions -  °F | °C
As of 4:46 PM on Monday 22 Dec 2014 (Local Time) from KOFF Reporting Station
Moderate Rain Moderate Rain  
Wind Chill: 37°   Ceiling: 1700
Heat Index: 43°   Visibility: 8mi
Dew Point: 39°   Wind: 12mph
Humidity: 87%   Direction: 310°NW
Pressure: 29.41"   Gusts: NA
Location:  41.12°N, 95.92°W
Report Text: KOFF 222246Z AUTO 31010KT 8SM RA SCT009 BKN017 OVC023 06/04 A2941 RMK AO2 CIG 009V017
Loading
Personal Weather Stations






























Interactive Weather Map New forecast layout! Learn more

10-Day Weather Forecast

Advertisements
Track Severe Weather on mobile